Time;durP1;ratioP1;P1;durP2;ratioP2;P2;SDS_P1;SDS_P2;PMS_P1;PMS_P2;Temp;Humidity;BMP_temperature;BMP_pressure;BME280_temperature;BME280_humidity;BME280_pressure;Samples;Min_cycle;Max_cycle;Signal;HPM_P1;HPM_P2
2021/08/18 00:00:31;;;;;;;5.07;0.63;;;15.70;73.30;;;18.94;58.60;101431.56;3191365;38;130774;-73
2021/08/18 00:03:37;;;;;;;0.00;0.00;;;15.70;73.30;;;18.95;58.24;101427.72;3190683;38;132556;-73
2021/08/18 00:06:45;;;;;;;0.25;0.25;;;15.60;73.30;;;18.92;58.66;101429.16;3191654;38;131232;-73
2021/08/18 00:09:51;;;;;;;0.00;0.00;;;15.70;73.40;;;18.88;58.75;101432.13;3191852;38;130705;-73
2021/08/18 00:13:00;;;;;;;0.10;0.10;;;15.70;73.40;;;18.84;58.44;101428.50;3191262;38;131436;-73
2021/08/18 00:16:08;;;;;;;0.73;0.73;;;15.60;73.30;;;18.88;58.69;101430.19;3192148;30;130196;-72
2021/08/18 00:19:14;;;;;;;0.00;0.00;;;15.70;73.50;;;18.89;58.52;101431.75;3191330;30;130066;-72
2021/08/18 00:22:20;;;;;;;0.17;0.17;;;15.70;73.40;;;18.80;58.81;101428.38;3189606;30;130131;-73
2021/08/18 00:25:27;;;;;;;0.57;0.57;;;15.70;73.40;;;18.81;58.91;101421.81;3191463;30;130755;-72
2021/08/18 00:28:35;;;;;;;0.17;0.17;;;15.70;73.40;;;18.82;58.75;101428.81;3188941;38;129744;-74
2021/08/18 00:31:41;;;;;;;0.40;0.40;;;15.70;73.50;;;18.82;59.04;101428.81;3188139;38;129781;-73
2021/08/18 00:34:47;;;;;;;0.05;0.05;;;15.60;73.40;;;18.81;58.96;101435.38;3189795;38;130699;-73
2021/08/18 00:37:53;;;;;;;1.58;0.77;;;15.60;73.50;;;18.85;59.02;101435.50;3189401;38;131383;-73
2021/08/18 00:40:59;;;;;;;0.00;0.00;;;15.70;73.60;;;18.85;59.01;101430.84;3190549;38;131116;-73
2021/08/18 00:44:10;;;;;;;0.28;0.28;;;15.70;73.50;;;18.80;59.03;101433.03;3189575;38;130377;-73
2021/08/18 00:47:16;;;;;;;0.20;0.20;;;15.70;73.50;;;18.81;59.17;101432.66;3189613;38;129747;-73
2021/08/18 00:50:27;;;;;;;2.67;0.47;;;15.70;73.60;;;18.86;59.04;101427.00;3191694;30;129928;-73
2021/08/18 00:53:33;;;;;;;0.40;0.40;;;15.70;73.60;;;18.85;58.92;101428.16;3189823;38;130678;-73
2021/08/18 00:56:39;;;;;;;0.20;0.20;;;15.70;73.60;;;18.89;58.78;101429.03;3186510;30;130852;-73
2021/08/18 00:59:47;;;;;;;1.55;1.27;;;15.70;73.60;;;18.94;58.75;101423.41;3188812;30;130611;-74
2021/08/18 01:02:54;;;;;;;1.08;0.30;;;15.70;73.60;;;18.91;59.00;101423.28;3188058;30;130717;-74
2021/08/18 01:06:00;;;;;;;0.30;0.30;;;15.70;73.60;;;18.90;58.76;101427.13;3189320;38;129695;-74
2021/08/18 01:09:09;;;;;;;0.10;0.10;;;15.80;73.60;;;18.89;58.91;101429.03;3189880;38;130692;-74
2021/08/18 01:12:16;;;;;;;0.63;0.63;;;15.70;73.60;;;18.87;59.18;101423.16;3190331;30;130598;-74
2021/08/18 01:15:30;;;;;;;0.55;0.50;;;15.70;73.60;;;18.90;58.78;101427.91;3187842;30;131684;-73
2021/08/18 01:18:36;;;;;;;0.70;0.43;;;15.70;73.70;;;18.86;59.29;101427.00;3190645;38;130787;-73
2021/08/18 01:21:44;;;;;;;0.00;0.00;;;15.70;73.70;;;18.85;59.33;101427.38;3189053;30;131197;-73
2021/08/18 01:24:50;;;;;;;0.70;0.50;;;15.70;73.60;;;18.88;59.00;101424.75;3188996;30;130619;-74
2021/08/18 01:27:59;;;;;;;0.63;0.45;;;15.70;73.60;;;18.88;59.18;101432.13;3189404;38;129794;-73
2021/08/18 01:31:11;;;;;;;2.13;0.35;;;15.80;73.70;;;18.87;59.26;101425.88;3188405;38;130277;-73
2021/08/18 01:34:17;;;;;;;0.52;0.52;;;15.80;73.70;;;18.87;59.34;101431.31;3189157;30;129721;-73
2021/08/18 01:37:23;;;;;;;0.40;0.40;;;15.80;73.70;;;18.85;59.43;101422.72;3190190;30;129805;-74
2021/08/18 01:40:29;;;;;;;0.30;0.30;;;15.80;73.70;;;18.79;59.44;101421.34;3191136;30;132292;-73
2021/08/18 01:43:35;;;;;;;0.98;0.28;;;15.80;73.70;;;18.73;59.50;101422.72;3190108;38;131625;-73
2021/08/18 01:46:43;;;;;;;0.35;0.35;;;15.70;73.70;;;18.69;59.84;101410.97;3188693;30;130709;-73
2021/08/18 01:49:49;;;;;;;0.65;0.65;;;15.80;73.80;;;18.72;59.58;101414.91;3187984;38;130877;-73
2021/08/18 01:52:57;;;;;;;0.17;0.17;;;15.70;73.80;;;18.71;59.84;101414.13;3188458;38;131568;-73
2021/08/18 01:56:07;;;;;;;0.30;0.30;;;15.70;73.80;;;18.74;59.55;101418.06;3187486;30;131449;-73
2021/08/18 01:59:14;;;;;;;0.57;0.57;;;15.70;73.90;;;18.78;59.51;101414.34;3188926;30;129512;-73
2021/08/18 02:02:23;;;;;;;1.08;0.47;;;15.70;73.80;;;18.79;59.69;101426.78;3190083;30;130790;-73
2021/08/18 02:05:30;;;;;;;0.20;0.20;;;15.70;73.90;;;18.82;59.57;101420.69;3190000;30;130074;-73
2021/08/18 02:08:36;;;;;;;0.20;0.20;;;15.70;73.90;;;18.81;59.47;101419.09;3189762;38;129875;-73
2021/08/18 02:11:41;;;;;;;0.15;0.15;;;15.70;73.80;;;18.78;59.48;101419.78;3189835;38;130742;-73
2021/08/18 02:14:48;;;;;;;0.15;0.15;;;15.70;73.90;;;18.81;59.59;101423.75;3190129;30;129960;-73
2021/08/18 02:17:57;;;;;;;0.52;0.52;;;15.70;73.90;;;18.78;59.75;101425.22;3190148;38;130137;-74
2021/08/18 02:21:03;;;;;;;0.10;0.10;;;15.70;73.90;;;18.77;59.52;101429.06;3188012;38;129871;-74
2021/08/18 02:24:09;;;;;;;1.33;1.23;;;15.80;74.00;;;18.70;59.89;101428.84;3188952;38;129636;-74
2021/08/18 02:27:15;;;;;;;0.10;0.10;;;15.70;73.90;;;18.68;59.87;101436.53;3189072;38;130404;-74
2021/08/18 02:30:25;;;;;;;0.65;0.43;;;15.70;73.90;;;18.63;59.93;101430.53;3188731;38;129720;-74
2021/08/18 02:33:34;;;;;;;0.00;0.00;;;15.70;73.90;;;18.63;60.08;101430.53;3188854;30;129864;-74
2021/08/18 02:36:40;;;;;;;0.00;0.00;;;15.60;73.90;;;18.65;59.79;101431.78;3190100;38;129829;-73
2021/08/18 02:39:46;;;;;;;0.17;0.15;;;15.60;73.90;;;18.60;60.02;101431.97;3191018;38;129986;-73
2021/08/18 02:42:56;;;;;;;0.35;0.30;;;15.60;74.60;;;18.62;59.92;101427.03;3189097;38;130641;-73
2021/08/18 02:46:05;;;;;;;0.25;0.25;;;15.60;74.00;;;18.54;59.81;101425.19;3190169;38;132007;-74
2021/08/18 02:49:15;;;;;;;0.45;0.45;;;15.60;74.00;;;18.56;59.89;101428.34;3190046;38;130638;-74
2021/08/18 02:52:22;;;;;;;0.20;0.20;;;15.50;74.00;;;18.57;59.95;101419.06;3191561;38;130730;-74
2021/08/18 02:55:31;;;;;;;0.32;0.20;;;15.50;74.00;;;18.58;59.56;101409.03;3187458;38;129656;-74
2021/08/18 02:58:37;;;;;;;0.10;0.10;;;15.50;74.00;;;18.53;59.83;101404.59;3188944;38;130802;-74
2021/08/18 03:01:42;;;;;;;3.25;0.45;;;15.50;74.00;;;18.50;59.68;101407.22;3189511;38;130686;-74
2021/08/18 03:04:52;;;;;;;0.00;0.00;;;15.40;74.00;;;18.40;59.94;101403.03;3188445;38;129867;-74
2021/08/18 03:07:57;;;;;;;0.47;0.22;;;15.40;74.00;;;18.37;60.04;101406.41;3189907;30;130788;-74
2021/08/18 03:11:04;;;;;;;0.10;0.10;;;15.40;74.00;;;18.36;59.96;101406.72;3188304;30;130702;-73
2021/08/18 03:14:10;;;;;;;0.38;0.38;;;15.40;74.20;;;18.32;60.04;101403.91;3188058;38;129886;-74
2021/08/18 03:17:16;;;;;;;0.50;0.50;;;15.40;74.10;;;18.30;60.32;101408.09;3189915;30;130748;-73
2021/08/18 03:20:24;;;;;;;0.10;0.10;;;15.30;74.10;;;18.31;60.30;101404.25;3188537;30;131096;-74
2021/08/18 03:23:31;;;;;;;2.75;0.15;;;15.30;74.20;;;18.34;60.12;101406.28;3187691;38;129811;-73
2021/08/18 03:26:36;;;;;;;1.70;0.57;;;15.30;74.30;;;18.38;60.06;101409.91;3190678;30;130641;-73
2021/08/18 03:29:42;;;;;;;1.35;0.80;;;15.30;74.20;;;18.37;59.94;101413.75;3190050;38;131065;-73
2021/08/18 03:32:48;;;;;;;0.60;0.60;;;15.30;74.30;;;18.35;59.93;101416.81;3186513;38;135163;-73
2021/08/18 03:35:57;;;;;;;0.00;0.00;;;15.30;74.20;;;18.37;59.83;101419.16;3187055;38;131478;-73
2021/08/18 03:39:03;;;;;;;0.20;0.20;;;15.30;74.30;;;18.34;60.11;101409.00;3189526;38;129875;-73
2021/08/18 03:42:09;;;;;;;0.20;0.20;;;15.30;74.30;;;18.35;60.12;101416.81;3187372;38;130744;-73
2021/08/18 03:45:15;;;;;;;0.80;0.57;;;15.30;74.40;;;18.35;60.15;101419.53;3188060;38;131983;-73
2021/08/18 03:48:21;;;;;;;0.15;0.15;;;15.30;75.00;;;18.34;59.99;101415.22;3188465;38;132265;-75
2021/08/18 03:51:29;;;;;;;0.90;0.40;;;15.30;74.40;;;18.35;60.15;101424.13;3188700;38;129800;-73
2021/08/18 03:54:35;;;;;;;2.50;1.15;;;15.30;74.40;;;18.37;60.16;101428.13;3189311;38;130420;-73
2021/08/18 03:57:41;;;;;;;1.13;0.40;;;15.30;74.40;;;18.38;59.89;101418.84;3189481;30;129837;-73
2021/08/18 04:00:47;;;;;;;0.30;0.30;;;15.30;74.40;;;18.38;60.06;101432.41;3189868;38;131082;-73
2021/08/18 04:03:53;;;;;;;0.35;0.35;;;15.30;74.50;;;18.42;59.83;101427.09;3188931;30;130433;-73
2021/08/18 04:07:02;;;;;;;0.25;0.25;;;15.30;74.40;;;18.43;59.76;101424.06;3191198;30;129831;-73
2021/08/18 04:10:10;;;;;;;0.75;0.75;;;15.40;74.40;;;18.46;60.04;101434.22;3189901;38;130629;-73
2021/08/18 04:13:16;;;;;;;0.15;0.15;;;15.40;74.40;;;18.48;60.07;101431.97;3189671;38;130854;-74
2021/08/18 04:16:22;;;;;;;1.55;0.47;;;15.40;74.50;;;18.49;59.80;101436.28;3190951;30;131739;-73
2021/08/18 04:19:28;;;;;;;0.00;0.00;;;15.40;74.40;;;18.46;60.13;101436.94;3189028;38;130396;-74
2021/08/18 04:22:37;;;;;;;1.85;0.38;;;15.40;74.40;;;18.52;60.06;101437.53;3189408;38;129604;-74
2021/08/18 04:25:43;;;;;;;2.90;1.08;;;15.40;74.40;;;18.55;59.97;101426.78;3190027;30;131110;-74
2021/08/18 04:28:49;;;;;;;2.97;1.00;;;15.40;74.40;;;18.52;60.04;101423.97;3190896;38;130070;-74
2021/08/18 04:31:57;;;;;;;0.10;0.10;;;15.50;74.40;;;18.47;59.98;101408.69;3188900;30;129827;-74
2021/08/18 04:35:02;;;;;;;0.20;0.20;;;15.50;74.30;;;18.48;60.04;101417.63;3187990;38;131695;-74
2021/08/18 04:38:13;;;;;;;0.80;0.73;;;15.50;74.40;;;18.51;59.97;101422.38;3191454;30;130210;-74
2021/08/18 04:41:18;;;;;;;0.80;0.40;;;15.40;74.40;;;18.54;59.96;101424.41;3190156;38;130977;-74
2021/08/18 04:44:24;;;;;;;0.20;0.20;;;15.40;74.40;;;18.59;59.94;101424.19;3190540;30;131003;-74
2021/08/18 04:47:30;;;;;;;0.22;0.22;;;15.50;74.40;;;18.58;60.03;101430.75;3188132;38;130818;-74
2021/08/18 04:50:36;;;;;;;1.35;0.75;;;15.50;74.40;;;18.65;59.95;101425.53;3190472;30;130776;-74
2021/08/18 04:53:44;;;;;;;0.13;0.13;;;15.50;74.30;;;18.70;59.87;101430.75;3192302;30;130623;-74
2021/08/18 04:56:50;;;;;;;0.00;0.00;;;15.50;74.30;;;18.73;59.67;101425.44;3188852;38;129878;-74
2021/08/18 04:59:56;;;;;;;1.50;0.45;;;15.50;74.30;;;18.73;59.97;101433.59;3190539;30;129899;-74
2021/08/18 05:03:06;;;;;;;0.60;0.60;;;15.60;74.40;;;18.81;59.61;101424.53;3189385;38;131283;-74
2021/08/18 05:06:12;;;;;;;0.40;0.40;;;15.60;74.30;;;18.86;59.70;101427.00;3189481;38;130438;-74
2021/08/18 05:09:20;;;;;;;0.05;0.05;;;15.60;74.20;;;18.98;59.30;101424.31;3190652;38;130724;-74
2021/08/18 05:12:26;;;;;;;0.20;0.20;;;15.70;74.20;;;19.06;59.07;101426.09;3197736;30;130087;-74
2021/08/18 05:15:33;;;;;;;2.55;1.00;;;15.80;74.20;;;19.09;59.25;101428.94;3197970;30;129842;-75
2021/08/18 05:18:39;;;;;;;0.15;0.15;;;15.80;74.20;;;19.16;59.04;101425.66;3190960;30;129794;-74
2021/08/18 05:21:45;;;;;;;0.60;0.60;;;15.90;74.20;;;19.21;59.10;101428.13;3188921;38;129853;-74
2021/08/18 05:24:54;;;;;;;0.90;0.63;;;15.90;74.10;;;19.28;58.74;101428.38;3187507;30;130496;-74
2021/08/18 05:28:04;;;;;;;0.50;0.50;;;16.00;74.10;;;19.34;58.66;101427.78;3191230;30;129865;-74
2021/08/18 05:31:10;;;;;;;0.52;0.40;;;16.00;74.00;;;19.41;58.71;101429.91;3190331;30;129715;-74
2021/08/18 05:34:16;;;;;;;0.17;0.17;;;16.00;74.00;;;19.50;58.48;101428.66;3190015;30;130507;-74
2021/08/18 05:37:22;;;;;;;1.17;0.55;;;16.10;74.60;;;19.55;58.68;101430.34;3187305;38;129659;-74
2021/08/18 05:40:30;;;;;;;0.40;0.28;;;16.20;73.90;;;19.57;58.74;101431.56;3188394;30;130201;-74
2021/08/18 05:43:36;;;;;;;0.00;0.00;;;16.20;73.80;;;19.67;58.63;101430.31;3187847;38;130363;-74
2021/08/18 05:46:42;;;;;;;0.20;0.10;;;16.30;73.80;;;19.75;58.52;101437.53;3187785;38;129640;-74
2021/08/18 05:49:49;;;;;;;0.30;0.30;;;16.30;73.80;;;19.80;58.65;101440.00;3190314;30;130811;-74
2021/08/18 05:52:55;;;;;;;0.38;0.38;;;16.40;73.70;;;19.90;58.44;101434.06;3189291;38;130328;-74
2021/08/18 05:56:07;;;;;;;0.00;0.00;;;16.50;73.80;;;20.04;58.09;101424.41;3188498;30;130607;-74
2021/08/18 05:59:13;;;;;;;0.77;0.70;;;16.60;74.30;;;20.09;58.05;101417.91;3189382;38;129704;-74
2021/08/18 06:02:19;;;;;;;1.17;0.47;;;16.70;73.60;;;20.10;58.29;101428.44;3187795;38;130265;-74
2021/08/18 06:05:26;;;;;;;5.82;0.20;;;16.70;73.50;;;20.26;58.19;101428.47;3190344;30;130251;-74
2021/08/18 06:08:32;;;;;;;1.95;0.45;;;16.80;73.40;;;20.38;58.00;101428.38;3190053;38;131834;-74
2021/08/18 06:11:43;;;;;;;0.30;0.30;;;16.90;73.30;;;20.45;58.04;101423.16;3188848;38;129867;-74
2021/08/18 06:14:48;;;;;;;0.45;0.45;;;17.00;73.30;;;20.48;58.09;101431.38;3187898;30;130239;-74
2021/08/18 06:17:54;;;;;;;0.22;0.20;;;17.00;73.20;;;20.55;58.10;101431.56;3189733;30;130394;-74
2021/08/18 06:21:00;;;;;;;0.00;0.00;;;17.10;73.20;;;20.50;58.14;101431.06;3188837;38;130776;-74
2021/08/18 06:24:11;;;;;;;0.22;0.20;;;17.20;73.20;;;20.49;58.29;101424.78;3188941;38;129818;-74
2021/08/18 06:27:22;;;;;;;0.15;0.15;;;17.20;73.20;;;20.63;57.88;101422.44;3189438;30;130242;-74
2021/08/18 06:30:29;;;;;;;0.73;0.73;;;17.30;73.20;;;20.69;58.28;101423.75;3189341;38;132916;-74
2021/08/18 06:33:34;;;;;;;0.82;0.13;;;17.40;73.10;;;20.76;57.88;101413.81;3187609;38;130989;-74
2021/08/18 06:36:40;;;;;;;0.10;0.10;;;17.40;73.00;;;20.87;57.95;101425.78;3188932;30;131358;-74
2021/08/18 06:39:46;;;;;;;1.25;0.17;;;17.50;72.90;;;20.92;57.95;101420.06;3189236;38;130073;-74
2021/08/18 06:42:55;;;;;;;0.05;0.05;;;17.60;72.90;;;20.99;57.83;101411.28;3187641;31;131287;-74
2021/08/18 06:46:01;;;;;;;0.73;0.47;;;17.60;72.90;;;20.99;58.19;101427.63;3188871;38;130883;-74
2021/08/18 06:49:10;;;;;;;0.00;0.00;;;17.70;72.80;;;21.09;57.94;101427.06;3189277;38;130135;-74
2021/08/18 06:52:16;;;;;;;0.00;0.00;;;17.70;72.80;;;21.10;57.88;101434.91;3186747;30;130122;-74
2021/08/18 06:55:22;;;;;;;0.15;0.15;;;17.80;72.80;;;21.16;57.86;101430.75;3187718;38;130058;-74
2021/08/18 06:58:30;;;;;;;0.35;0.35;;;17.80;72.80;;;21.18;57.91;101436.63;3188457;38;132074;-74
2021/08/18 07:01:36;;;;;;;2.15;1.15;;;17.80;72.80;;;21.20;58.17;101444.47;3190095;38;129703;-74
2021/08/18 07:04:42;;;;;;;0.43;0.43;;;17.80;72.80;;;21.25;58.05;101441.47;3187113;38;130814;-74
2021/08/18 07:07:49;;;;;;;0.30;0.30;;;17.90;72.90;;;21.46;57.48;101437.25;3189573;30;131073;-74
2021/08/18 07:10:55;;;;;;;0.30;0.30;;;18.00;72.70;;;21.68;57.12;101449.44;3188907;38;133716;-74
2021/08/18 07:14:06;;;;;;;0.03;0.03;;;18.10;72.50;;;21.92;56.98;101449.94;3189029;38;129842;-75
2021/08/18 07:17:11;;;;;;;0.52;0.52;;;18.30;72.50;;;22.10;56.40;101442.88;3188252;30;130059;-74
2021/08/18 07:20:18;;;;;;;3.45;1.45;;;18.40;72.30;;;22.30;55.98;101444.44;3188194;38;129838;-74
2021/08/18 07:23:23;;;;;;;0.28;0.28;;;18.60;72.10;;;22.51;56.10;101451.09;3188120;38;131587;-74
2021/08/18 07:26:30;;;;;;;8.07;2.15;;;18.70;71.90;;;22.69;55.61;101452.19;3189667;30;129934;-74
2021/08/18 07:29:38;;;;;;;0.10;0.10;;;18.90;71.70;;;22.69;55.84;101451.38;3188650;30;130701;-74
2021/08/18 07:32:44;;;;;;;0.13;0.10;;;19.00;71.70;;;22.69;56.21;101452.19;3188937;30;130219;-74
2021/08/18 07:35:50;;;;;;;1.80;0.30;;;19.10;71.70;;;22.75;56.29;101447.97;3189161;30;132096;-74
2021/08/18 07:38:56;;;;;;;0.03;0.03;;;19.20;71.80;;;22.85;56.32;101439.16;3188897;38;132030;-73
2021/08/18 07:42:01;;;;;;;15.48;0.68;;;19.20;71.60;;;22.95;56.09;101445.94;3188182;38;129666;-73
2021/08/18 07:45:13;;;;;;;0.90;0.77;;;19.30;71.70;;;23.00;55.89;101451.91;3189962;30;130147;-73
2021/08/18 07:48:19;;;;;;;0.40;0.32;;;19.40;71.80;;;23.25;55.71;101446.81;3189343;38;131332;-74
2021/08/18 07:51:25;;;;;;;0.28;0.28;;;19.50;71.70;;;23.43;55.60;101447.88;3189833;38;130510;-74
2021/08/18 07:54:31;;;;;;;0.08;0.08;;;19.60;71.40;;;23.41;55.65;101447.41;3189843;30;130707;-73
2021/08/18 07:57:37;;;;;;;0.20;0.20;;;19.70;71.30;;;23.37;56.05;101446.59;3187823;30;130679;-73
2021/08/18 08:00:46;;;;;;;1.55;0.80;;;19.70;71.40;;;23.32;56.11;101445.00;3191168;30;130670;-73
2021/08/18 08:03:52;;;;;;;0.75;0.57;;;19.80;71.40;;;23.42;56.13;101443.53;3190607;38;130744;-73
2021/08/18 08:06:58;;;;;;;0.00;0.00;;;19.80;71.40;;;23.75;55.47;101452.56;3190696;30;129946;-74
2021/08/18 08:10:14;;;;;;;21.20;0.43;;;19.90;71.40;;;23.93;55.13;101459.88;3187038;38;130699;-74
2021/08/18 08:13:20;;;;;;;0.65;0.30;;;20.10;71.30;;;24.10;55.05;101451.09;3191727;30;129876;-74
2021/08/18 08:16:29;;;;;;;1.15;0.52;;;20.20;71.30;;;24.65;53.92;101452.81;3190464;38;130924;-74
2021/08/18 08:19:35;;;;;;;1.98;1.08;;;20.40;71.10;;;24.87;53.64;101451.03;3189930;38;129931;-74
2021/08/18 08:22:43;;;;;;;0.03;0.03;;;20.70;70.80;;;24.98;53.98;101449.16;3192252;38;129483;-74
2021/08/18 08:25:49;;;;;;;1.25;0.85;;;20.90;70.80;;;25.46;53.02;101443.22;3190905;30;130552;-74
2021/08/18 08:28:55;;;;;;;1.10;0.35;;;21.20;70.60;;;25.36;53.71;101454.13;3189303;38;130779;-74
2021/08/18 08:32:03;;;;;;;0.10;0.10;;;21.30;70.30;;;25.32;53.97;101439.59;3188805;38;131650;-74
2021/08/18 08:35:13;;;;;;;0.05;0.05;;;21.40;70.30;;;26.10;52.54;101453.28;3189995;38;130280;-74
2021/08/18 08:38:18;;;;;;;0.10;0.10;;;21.60;70.20;;;26.05;52.78;101440.75;3191088;38;129642;-74
2021/08/18 08:41:24;;;;;;;0.47;0.35;;;21.70;70.10;;;25.93;53.44;101443.84;3190393;30;130717;-74
2021/08/18 08:44:30;;;;;;;0.73;0.45;;;21.80;70.00;;;25.84;53.96;101448.13;3188881;38;130770;-72
2021/08/18 08:47:41;;;;;;;0.38;0.20;;;21.90;70.20;;;25.53;54.61;101451.50;3187281;38;131447;-74
2021/08/18 08:50:50;;;;;;;0.10;0.10;;;21.90;70.10;;;25.43;54.80;101454.19;3190957;30;130746;-74
2021/08/18 08:53:56;;;;;;;0.05;0.03;;;21.70;70.20;;;25.21;55.29;101455.22;3189815;30;133607;-74
2021/08/18 08:57:01;;;;;;;0.30;0.17;;;21.70;70.50;;;25.19;55.55;101458.34;3187536;30;130556;-74
2021/08/18 09:00:13;;;;;;;4.88;1.45;;;21.60;70.60;;;25.06;55.96;101456.25;3188653;38;131698;-73
2021/08/18 09:03:25;;;;;;;0.25;0.20;;;21.60;70.80;;;25.02;55.80;101459.00;3185762;30;130963;-73
2021/08/18 09:06:33;;;;;;;0.88;0.10;;;21.50;70.90;;;25.16;55.68;101452.81;3186708;38;130977;-73
2021/08/18 09:09:42;;;;;;;0.32;0.32;;;21.50;70.90;;;25.28;55.60;101453.31;3186311;38;130637;-76
2021/08/18 09:12:49;;;;;;;2.13;0.47;;;21.60;70.70;;;25.37;55.29;101452.94;3186334;30;131875;-73
2021/08/18 09:16:07;;;;;;;0.22;0.22;;;21.70;70.80;;;25.50;54.87;101446.75;3187935;30;130736;-73
2021/08/18 09:19:19;;;;;;;0.00;0.00;;;21.70;70.70;;;25.62;54.79;101447.22;3187714;38;130151;-73
2021/08/18 09:22:25;;;;;;;1.27;0.43;;;21.80;70.60;;;25.66;55.03;101453.50;3187127;38;130761;-73
2021/08/18 09:25:35;;;;;;;0.00;0.00;;;21.90;70.50;;;25.75;54.72;101458.66;3187152;30;130230;-74
2021/08/18 09:28:42;;;;;;;0.22;0.22;;;22.00;70.40;;;25.53;55.48;101446.00;3187359;30;130653;-75
2021/08/18 09:31:48;;;;;;;0.75;0.68;;;22.00;70.50;;;25.46;55.54;101451.44;3186192;30;130265;-74
2021/08/18 09:35:00;;;;;;;0.00;0.00;;;21.90;70.80;;;25.25;56.11;101448.59;3186157;30;130383;-74
2021/08/18 09:38:11;;;;;;;0.10;0.10;;;21.80;70.80;;;25.13;56.40;101448.09;3187036;38;130807;-73
2021/08/18 09:41:22;;;;;;;0.32;0.32;;;21.70;70.90;;;25.24;56.10;101446.22;3185139;38;132771;-73
2021/08/18 09:44:28;;;;;;;2.50;0.60;;;21.70;71.00;;;25.36;55.84;101437.66;3188272;38;130307;-74
2021/08/18 09:47:34;;;;;;;0.22;0.22;;;21.70;70.90;;;25.52;55.26;101436.22;3186060;38;133418;-73
2021/08/18 09:50:54;;;;;;;0.00;0.00;;;21.80;70.90;;;25.66;55.16;101434.28;3186485;38;129779;-73
2021/08/18 09:54:00;;;;;;;0.00;0.00;;;21.90;70.80;;;25.67;55.38;101441.38;3188050;30;129781;-73
2021/08/18 09:57:11;;;;;;;0.05;0.05;;;21.90;71.40;;;25.86;54.97;101432.06;3184070;38;131399;-73
2021/08/18 10:00:17;;;;;;;0.35;0.35;;;22.00;70.60;;;26.06;54.60;101438.78;3187314;38;129614;-73
2021/08/18 10:03:24;;;;;;;0.00;0.00;;;22.10;70.60;;;26.18;54.37;101433.69;3186548;38;129869;-73
2021/08/18 10:06:33;;;;;;;0.13;0.13;;;22.30;70.40;;;26.43;54.31;101440.03;3186604;38;130787;-73
2021/08/18 10:09:40;;;;;;;0.20;0.10;;;22.40;70.20;;;26.54;53.59;101434.56;3185919;38;131683;-74
2021/08/18 10:12:46;;;;;;;0.00;0.00;;;22.60;70.00;;;26.95;53.10;101430.22;3185721;38;131567;-74
2021/08/18 10:15:55;;;;;;;0.50;0.20;;;22.70;69.90;;;27.70;51.72;101417.47;3185377;38;132028;-72
2021/08/18 10:19:09;;;;;;;0.57;0.57;;;23.10;69.70;;;28.16;51.24;101419.97;3184122;38;131169;-72
2021/08/18 10:22:27;;;;;;;0.00;0.00;;;23.40;69.20;;;28.17;51.53;101425.06;3183846;38;131700;-72
2021/08/18 10:25:40;;;;;;;0.35;0.35;;;23.70;68.80;;;28.11;51.94;101423.16;3185769;38;131833;-71
2021/08/18 10:29:07;;;;;;;0.35;0.25;;;23.90;68.60;;;28.07;52.49;101422.38;3185213;38;129735;-71
2021/08/18 10:32:15;;;;;;;0.00;0.00;;;24.00;68.70;;;28.15;52.46;101421.16;3184196;30;130750;-69
2021/08/18 10:35:48;;;;;;;1.23;0.30;;;24.00;68.50;;;28.10;52.55;101435.38;3185056;38;132461;-71
2021/08/18 10:38:57;;;;;;;0.00;0.00;;;24.10;68.70;;;28.11;53.17;101423.16;3181200;38;131491;-71
2021/08/18 10:42:07;;;;;;;0.00;0.00;;;24.10;68.90;;;28.21;52.69;101425.84;3184842;30;132774;-72
2021/08/18 10:45:41;;;;;;;0.25;0.15;;;24.20;69.00;;;28.34;52.69;101426.97;3185580;38;130629;-73
2021/08/18 10:49:05;;;;;;;0.10;0.10;;;24.30;68.90;;;28.31;52.88;101427.78;3184467;30;129959;-73
2021/08/18 10:52:11;;;;;;;0.20;0.20;;;24.30;68.80;;;28.40;53.18;101427.34;3185411;31;130938;-73
2021/08/18 10:55:31;;;;;;;0.05;0.05;;;24.40;68.90;;;28.45;52.85;101424.13;3185755;38;132274;-72
2021/08/18 10:58:36;;;;;;;0.00;0.00;;;24.40;68.90;;;28.57;53.00;101424.44;3184496;38;131415;-73
2021/08/18 11:01:45;;;;;;;0.20;0.20;;;24.50;68.90;;;28.45;53.19;101415.88;3187425;30;131932;-73
2021/08/18 11:04:53;;;;;;;0.52;0.50;;;24.50;68.70;;;28.09;54.07;101415.28;3187456;38;129812;-72
2021/08/18 11:08:09;;;;;;;0.10;0.10;;;24.40;69.00;;;28.14;54.01;101419.59;3185086;38;130805;-73
2021/08/18 11:11:20;;;;;;;0.20;0.20;;;24.30;69.20;;;28.14;53.88;101417.63;3192999;30;130726;-73
2021/08/18 11:14:38;;;;;;;0.05;0.05;;;24.30;69.20;;;27.97;53.87;101413.00;3192388;30;130724;-72
2021/08/18 11:17:45;;;;;;;0.38;0.35;;;24.20;69.00;;;27.67;54.24;101414.69;3185738;38;130503;-73
2021/08/18 11:20:56;;;;;;;0.00;0.00;;;24.10;69.00;;;27.43;54.85;101421.09;3184997;38;130456;-73
2021/08/18 11:24:06;;;;;;;0.32;0.22;;;23.90;69.30;;;27.39;54.93;101406.56;3184408;38;130771;-73
2021/08/18 11:27:20;;;;;;;0.20;0.20;;;23.80;70.10;;;27.61;54.48;101408.03;3184369;38;130444;-73
2021/08/18 11:30:30;;;;;;;1.45;0.65;;;23.80;69.60;;;27.79;53.99;101404.06;3184964;38;130739;-73
2021/08/18 11:33:38;;;;;;;0.88;0.60;;;23.90;69.60;;;27.92;53.59;101402.41;3186048;30;130809;-73
2021/08/18 11:36:44;;;;;;;0.43;0.43;;;23.90;69.40;;;28.19;53.01;101397.13;3182098;38;131272;-74
2021/08/18 11:39:59;;;;;;;0.00;0.00;;;24.00;69.20;;;28.50;52.63;101396.91;3185603;38;131151;-73
2021/08/18 11:43:11;;;;;;;0.10;0.10;;;24.30;69.70;;;28.92;51.99;101401.28;3185389;38;130312;-73
2021/08/18 11:46:17;;;;;;;0.10;0.10;;;24.50;69.10;;;29.10;51.72;101397.13;3186070;38;130593;-73
2021/08/18 11:49:27;;;;;;;0.30;0.25;;;24.80;68.70;;;29.26;51.74;101389.09;3183199;38;130721;-74
2021/08/18 11:52:33;;;;;;;0.43;0.32;;;25.00;68.60;;;29.51;51.22;101392.38;3186409;38;130181;-73
2021/08/18 11:55:40;;;;;;;0.10;0.10;;;25.10;68.20;;;30.01;50.37;101388.53;3183829;38;131439;-72
2021/08/18 11:58:49;;;;;;;0.08;0.08;;;25.40;68.30;;;30.58;49.57;101380.94;3184110;38;130700;-73
2021/08/18 12:01:55;;;;;;;0.95;0.40;;;25.70;68.00;;;30.66;49.93;101376.06;3184272;30;131590;-74
2021/08/18 12:05:08;;;;;;;1.27;0.73;;;26.00;68.00;;;30.52;50.70;101376.25;3184767;38;135300;-73
2021/08/18 12:08:17;;;;;;;0.00;0.00;;;26.10;67.70;;;30.08;51.85;101371.84;3185358;38;130474;-73
2021/08/18 12:11:40;;;;;;;0.20;0.10;;;26.10;67.60;;;29.32;53.34;101371.66;3185583;38;130522;-73
2021/08/18 12:14:54;;;;;;;0.15;0.15;;;25.80;68.00;;;28.74;54.44;101365.56;3183868;38;129805;-73
2021/08/18 12:18:06;;;;;;;0.20;0.20;;;25.40;68.50;;;28.34;55.00;101363.56;3186934;30;130310;-73
2021/08/18 12:21:19;;;;;;;0.00;0.00;;;25.00;68.90;;;28.03;55.35;101370.06;3186846;30;129943;-71
2021/08/18 12:24:32;;;;;;;0.22;0.22;;;24.70;69.20;;;27.34;56.49;101358.22;3187146;30;130841;-72
2021/08/18 12:27:38;;;;;;;0.20;0.10;;;24.30;69.50;;;26.81;57.41;101378.75;3187378;38;130555;-72
2021/08/18 12:31:06;;;;;;;0.30;0.10;;;23.90;69.90;;;26.54;57.83;101363.84;3186223;38;130514;-71
2021/08/18 12:34:13;;;;;;;0.52;0.52;;;23.60;71.10;;;26.57;57.44;101365.03;3183728;38;131106;-72
2021/08/18 12:37:23;;;;;;;1.48;0.40;;;23.40;70.70;;;26.09;57.88;101369.31;3188078;30;130816;-71
2021/08/18 12:40:30;;;;;;;0.00;0.00;;;23.20;70.60;;;25.77;58.54;101369.22;3188348;38;129767;-72
2021/08/18 12:43:36;;;;;;;0.13;0.05;;;22.90;71.10;;;25.70;58.33;101366.47;3186818;38;130257;-72
2021/08/18 12:46:47;;;;;;;0.52;0.40;;;22.70;71.20;;;26.12;56.92;101358.34;3187561;38;130495;-72
2021/08/18 12:49:53;;;;;;;2.08;0.25;;;22.60;71.30;;;26.74;55.49;101364.25;3187704;30;130204;-72
2021/08/18 12:53:00;;;;;;;0.10;0.10;;;22.90;70.90;;;26.99;54.90;101367.72;3187134;30;131305;-72